createdAt,value
2023-08-11T00:00:09.674Z,15.45
2023-08-11T00:02:58.084Z,15.47
2023-08-11T00:05:26.557Z,15.49
2023-08-11T00:07:56.012Z,15.48
2023-08-11T00:10:25.309Z,15.49
2023-08-11T00:12:53.181Z,15.46
2023-08-11T00:15:21.606Z,15.46
2023-08-11T00:17:49.538Z,15.46
2023-08-11T00:20:17.474Z,15.43
2023-08-11T00:22:45.556Z,15.40
2023-08-11T00:25:13.629Z,15.36
2023-08-11T00:27:41.564Z,15.32
2023-08-11T00:30:10.648Z,15.30
2023-08-11T00:32:40.293Z,15.29
2023-08-11T00:35:09.189Z,15.29
2023-08-11T00:37:37.120Z,15.31
2023-08-11T00:40:05.821Z,15.33
2023-08-11T00:42:33.751Z,15.35
2023-08-11T00:45:01.821Z,15.37
2023-08-11T00:47:30.600Z,15.37
2023-08-11T00:49:58.678Z,15.36
2023-08-11T00:52:26.962Z,15.34
2023-08-11T00:54:57.653Z,15.31
2023-08-11T00:57:25.717Z,15.30
2023-08-11T00:59:54.046Z,15.29
2023-08-11T01:02:23.146Z,15.31
2023-08-11T01:04:51.089Z,15.31
2023-08-11T01:07:25.774Z,15.31
2023-08-11T01:10:16.176Z,15.33
2023-08-11T01:13:07.046Z,15.35
2023-08-11T01:15:41.949Z,15.38
2023-08-11T01:18:11.364Z,15.40
2023-08-11T01:20:40.820Z,15.40
2023-08-11T01:23:16.181Z,15.38
2023-08-11T01:25:44.690Z,15.39
2023-08-11T01:28:12.658Z,15.41
2023-08-11T01:30:41.162Z,15.42
2023-08-11T01:33:10.390Z,15.44
2023-08-11T01:35:42.047Z,15.44
2023-08-11T01:38:11.509Z,15.43
2023-08-11T01:40:40.228Z,15.42
2023-08-11T01:43:11.418Z,15.39
2023-08-11T01:45:40.641Z,15.36
2023-08-11T01:48:09.654Z,15.32
2023-08-11T01:50:39.006Z,15.28
2023-08-11T01:53:07.001Z,15.23
2023-08-11T01:55:35.143Z,15.17
2023-08-11T01:58:03.707Z,15.11
2023-08-11T02:00:31.781Z,15.02
2023-08-11T02:03:00.118Z,14.96
2023-08-11T02:05:30.476Z,14.88
2023-08-11T02:07:59.528Z,14.80
2023-08-11T02:10:27.443Z,14.75
2023-08-11T02:12:55.409Z,14.67
2023-08-11T02:15:23.556Z,14.62
2023-08-11T02:17:51.638Z,14.59
2023-08-11T02:20:24.118Z,14.55
2023-08-11T02:22:53.949Z,14.50
2023-08-11T02:25:23.633Z,14.44
2023-08-11T02:27:52.056Z,14.38
2023-08-11T02:30:20.600Z,14.32
2023-08-11T02:32:48.831Z,14.29
2023-08-11T02:35:18.492Z,14.25
2023-08-11T02:38:06.994Z,14.20
2023-08-11T02:40:36.509Z,14.15
2023-08-11T02:43:04.788Z,14.09
2023-08-11T02:45:32.836Z,14.06
2023-08-11T02:48:00.859Z,14.04
2023-08-11T02:50:28.939Z,14.04
2023-08-11T02:52:56.870Z,14.03
2023-08-11T02:55:25.203Z,14.02
2023-08-11T02:57:53.287Z,14.01
2023-08-11T03:00:21.199Z,13.99
2023-08-11T03:02:49.568Z,13.97
2023-08-11T03:05:18.174Z,13.94
2023-08-11T03:07:46.212Z,13.92
2023-08-11T03:10:14.551Z,13.90
2023-08-11T03:12:42.654Z,13.89
2023-08-11T03:15:11.634Z,13.87
2023-08-11T03:17:40.027Z,13.83
2023-08-11T03:20:16.480Z,13.80
2023-08-11T03:22:45.389Z,13.77
2023-08-11T03:25:13.727Z,13.75
2023-08-11T03:27:43.897Z,13.74
2023-08-11T03:30:13.580Z,13.73
2023-08-11T03:32:41.626Z,13.73
2023-08-11T03:35:09.938Z,13.70
2023-08-11T03:37:37.865Z,13.70
2023-08-11T03:40:14.129Z,13.71
2023-08-11T03:42:43.600Z,13.71
2023-08-11T03:45:15.959Z,13.72
2023-08-11T03:47:44.541Z,13.72
2023-08-11T03:50:13.170Z,13.73
2023-08-11T03:52:41.300Z,13.74
2023-08-11T03:55:11.049Z,13.75
2023-08-11T03:57:39.470Z,13.75
2023-08-11T04:00:15.635Z,13.76
2023-08-11T04:02:44.920Z,13.77
2023-08-11T04:05:13.633Z,13.79
2023-08-11T04:07:42.003Z,13.80
2023-08-11T04:10:13.559Z,13.82
2023-08-11T04:12:41.505Z,13.86
2023-08-11T04:15:09.780Z,13.89
2023-08-11T04:17:38.241Z,13.91
2023-08-11T04:20:13.834Z,13.94
2023-08-11T04:22:42.802Z,13.96
2023-08-11T04:25:12.597Z,13.99
2023-08-11T04:27:40.781Z,14.00
2023-08-11T04:30:10.204Z,14.02
2023-08-11T04:32:38.463Z,14.04
2023-08-11T04:35:09.828Z,14.06
2023-08-11T04:37:37.877Z,14.08
2023-08-11T04:40:10.727Z,14.09
2023-08-11T04:42:39.340Z,14.11
2023-08-11T04:45:08.114Z,14.13
2023-08-11T04:47:36.489Z,14.13
2023-08-11T04:50:04.897Z,14.13
2023-08-11T04:52:33.862Z,14.16
2023-08-11T04:55:01.868Z,14.17
2023-08-11T04:57:29.925Z,14.21
2023-08-11T04:59:58.069Z,14.24
2023-08-11T05:02:26.091Z,14.28
2023-08-11T05:04:55.004Z,14.31
2023-08-11T05:07:22.997Z,14.38
2023-08-11T05:09:51.090Z,14.43
2023-08-11T05:12:19.150Z,14.49
2023-08-11T05:14:48.610Z,14.55
2023-08-11T05:17:16.733Z,14.61
2023-08-11T05:19:44.809Z,14.68
2023-08-11T05:22:13.631Z,14.75
2023-08-11T05:24:41.516Z,14.82
2023-08-11T05:27:10.386Z,14.90
2023-08-11T05:29:41.242Z,14.99
2023-08-11T05:32:09.198Z,15.06
2023-08-11T05:34:40.806Z,15.12
2023-08-11T05:37:09.312Z,15.19
2023-08-11T05:39:40.471Z,15.27
2023-08-11T05:42:09.126Z,15.36
2023-08-11T05:44:38.498Z,15.43
2023-08-11T05:47:07.310Z,15.49
2023-08-11T05:49:35.693Z,15.53
2023-08-11T05:52:03.861Z,15.58
2023-08-11T05:54:37.423Z,15.61
2023-08-11T05:57:05.666Z,15.68
2023-08-11T05:59:33.835Z,15.74
2023-08-11T06:02:01.827Z,15.82
2023-08-11T06:04:29.735Z,15.91
2023-08-11T06:06:57.737Z,16.00
2023-08-11T06:09:25.706Z,16.10
2023-08-11T06:11:53.676Z,16.19
2023-08-11T06:14:21.917Z,16.29
2023-08-11T06:16:50.084Z,16.40
2023-08-11T06:19:18.014Z,16.51
2023-08-11T06:21:46.769Z,16.62
2023-08-11T06:24:14.654Z,16.71
2023-08-11T06:26:43.795Z,16.81
2023-08-11T06:29:11.903Z,16.90
2023-08-11T06:31:39.795Z,17.00
2023-08-11T06:34:07.844Z,17.09
2023-08-11T06:36:36.006Z,17.18
2023-08-11T06:39:04.592Z,17.27
2023-08-11T06:41:32.535Z,17.34
2023-08-11T06:44:00.511Z,17.42
2023-08-11T06:46:28.552Z,17.50
2023-08-11T06:48:56.510Z,17.57
2023-08-11T06:51:24.590Z,17.63
2023-08-11T06:53:52.681Z,17.70
2023-08-11T06:56:20.766Z,17.75
2023-08-11T06:58:48.714Z,17.80
2023-08-11T07:01:19.014Z,17.87
2023-08-11T07:03:47.053Z,17.93
2023-08-11T07:06:15.700Z,18.01
2023-08-11T07:08:43.783Z,18.07
2023-08-11T07:11:11.813Z,18.14
2023-08-11T07:13:40.214Z,18.19
2023-08-11T07:16:08.087Z,18.22
2023-08-11T07:18:36.046Z,18.28
2023-08-11T07:21:04.172Z,18.32
2023-08-11T07:23:32.190Z,18.38
2023-08-11T07:26:00.186Z,18.44
2023-08-11T07:28:28.097Z,18.48
2023-08-11T07:30:56.104Z,18.51
2023-08-11T07:33:24.427Z,18.52
2023-08-11T07:35:52.452Z,18.55
2023-08-11T07:38:21.631Z,18.57
2023-08-11T07:40:49.866Z,18.63
2023-08-11T07:43:17.931Z,18.71
2023-08-11T07:45:46.174Z,18.80
2023-08-11T07:48:14.399Z,18.86
2023-08-11T07:50:42.541Z,18.91
2023-08-11T07:53:10.493Z,18.92
2023-08-11T07:55:38.563Z,18.96
2023-08-11T07:58:07.037Z,19.03
2023-08-11T08:00:35.117Z,19.05
2023-08-11T08:03:03.277Z,19.09
2023-08-11T08:05:32.431Z,19.15
2023-08-11T08:08:00.380Z,19.22
2023-08-11T08:10:28.544Z,19.28
2023-08-11T08:12:56.461Z,19.36
2023-08-11T08:15:25.677Z,19.42
2023-08-11T08:17:53.769Z,19.47
2023-08-11T08:20:21.963Z,19.51
2023-08-11T08:22:51.180Z,19.54
2023-08-11T08:25:19.092Z,19.56
2023-08-11T08:28:00.865Z,19.59
2023-08-11T08:30:34.794Z,19.63
2023-08-11T08:33:02.903Z,19.68
2023-08-11T08:35:30.978Z,19.76
2023-08-11T08:37:58.921Z,19.83
2023-08-11T08:40:28.635Z,19.88
2023-08-11T08:42:56.597Z,19.95
2023-08-11T08:45:29.023Z,20.03
2023-08-11T08:47:59.424Z,20.10
2023-08-11T08:50:28.566Z,20.14
2023-08-11T08:53:00.593Z,20.17
2023-08-11T08:55:28.695Z,20.21
2023-08-11T08:57:57.275Z,20.23
2023-08-11T09:00:25.439Z,20.25
2023-08-11T09:02:54.991Z,20.27
2023-08-11T09:05:23.683Z,20.25
2023-08-11T09:07:51.773Z,20.23
2023-08-11T09:10:20.007Z,20.23
2023-08-11T09:12:52.095Z,20.36
2023-08-11T09:15:23.198Z,20.57
2023-08-11T09:17:51.906Z,20.80
2023-08-11T09:20:21.018Z,21.02
2023-08-11T09:22:52.133Z,21.24
2023-08-11T09:25:20.403Z,21.48
2023-08-11T09:27:55.713Z,21.68
2023-08-11T09:30:32.795Z,21.82
2023-08-11T09:33:02.776Z,21.95
2023-08-11T09:35:31.177Z,22.13
2023-08-11T09:38:00.546Z,22.32
2023-08-11T09:40:28.523Z,22.55
2023-08-11T09:42:57.708Z,22.81
2023-08-11T09:45:32.648Z,23.05
2023-08-11T09:48:01.215Z,23.25
2023-08-11T09:50:38.307Z,23.42
2023-08-11T09:53:08.331Z,23.38
2023-08-11T09:55:39.453Z,23.34
2023-08-11T09:58:12.853Z,23.37
2023-08-11T10:00:41.333Z,23.29
2023-08-11T10:03:20.171Z,23.19
2023-08-11T10:05:52.228Z,23.14
2023-08-11T10:08:23.762Z,23.02
2023-08-11T10:10:52.001Z,22.88
2023-08-11T10:13:29.850Z,22.78
2023-08-11T10:15:58.777Z,22.70
2023-08-11T10:18:27.241Z,22.59
2023-08-11T10:20:57.076Z,22.47
2023-08-11T10:23:28.562Z,22.54
2023-08-11T10:25:57.012Z,22.81
2023-08-11T10:28:25.501Z,22.94
2023-08-11T10:30:58.368Z,22.94
2023-08-11T10:33:30.730Z,22.89
2023-08-11T10:36:01.968Z,22.82
2023-08-11T10:38:31.628Z,22.73
2023-08-11T10:41:10.771Z,22.63
2023-08-11T10:43:42.412Z,22.58
2023-08-11T10:46:30.464Z,22.55
2023-08-11T10:49:00.513Z,22.50
2023-08-11T10:51:33.631Z,22.44
2023-08-11T10:54:12.912Z,22.41
2023-08-11T10:56:43.097Z,22.37
2023-08-11T10:59:16.268Z,22.33
2023-08-11T11:01:48.734Z,22.32
2023-08-11T11:04:22.765Z,22.33
2023-08-11T11:06:54.854Z,22.36
2023-08-11T11:09:23.281Z,22.41
2023-08-11T11:11:52.759Z,22.48
2023-08-11T11:14:21.073Z,22.55
2023-08-11T11:16:50.097Z,22.66
2023-08-11T11:19:18.166Z,22.75
2023-08-11T11:21:46.882Z,22.86
2023-08-11T11:24:16.471Z,22.90
2023-08-11T11:26:44.902Z,22.84
2023-08-11T11:29:13.174Z,22.84
2023-08-11T11:31:41.356Z,22.98
2023-08-11T11:34:10.104Z,23.15
2023-08-11T11:36:38.195Z,23.38
2023-08-11T11:39:10.383Z,23.49
2023-08-11T11:41:39.504Z,23.48
2023-08-11T11:44:07.579Z,23.52
2023-08-11T11:46:35.709Z,23.52
2023-08-11T11:49:09.589Z,23.49
2023-08-11T11:51:44.310Z,23.51
2023-08-11T11:54:12.312Z,23.44
2023-08-11T11:56:47.177Z,23.33
2023-08-11T11:59:19.434Z,23.20
2023-08-11T12:01:47.511Z,23.17
2023-08-11T12:04:16.220Z,23.21
2023-08-11T12:06:44.327Z,23.28
2023-08-11T12:09:14.225Z,23.34
2023-08-11T12:11:42.335Z,23.33
2023-08-11T12:14:12.967Z,23.30
2023-08-11T12:16:41.101Z,23.28
2023-08-11T12:19:10.960Z,23.30
2023-08-11T12:21:39.200Z,23.34
2023-08-11T12:24:08.345Z,23.43
2023-08-11T12:26:36.197Z,23.52
2023-08-11T12:29:06.686Z,23.59
2023-08-11T12:31:34.587Z,23.68
2023-08-11T12:34:02.706Z,23.72
2023-08-11T12:36:30.987Z,23.75
2023-08-11T12:39:01.199Z,23.82
2023-08-11T12:41:29.182Z,23.90
2023-08-11T12:43:57.158Z,23.97
2023-08-11T12:46:25.994Z,24.00
2023-08-11T12:48:54.172Z,24.02
2023-08-11T12:51:22.080Z,24.05
2023-08-11T12:53:50.210Z,24.09
2023-08-11T12:56:19.053Z,24.06
2023-08-11T12:58:47.141Z,24.04
2023-08-11T13:01:18.322Z,24.07
2023-08-11T13:03:47.444Z,24.10
2023-08-11T13:06:16.311Z,24.13
2023-08-11T13:08:44.565Z,24.15
2023-08-11T13:11:12.623Z,24.11
2023-08-11T13:13:41.217Z,23.98
2023-08-11T13:16:09.683Z,23.81
2023-08-11T13:18:38.409Z,23.59
2023-08-11T13:21:06.370Z,23.41
2023-08-11T13:23:34.762Z,23.26
2023-08-11T13:26:03.884Z,23.13
2023-08-11T13:28:31.777Z,23.12
2023-08-11T13:31:00.456Z,23.16
2023-08-11T13:33:28.409Z,23.12
2023-08-11T13:35:56.521Z,23.09
2023-08-11T13:38:27.585Z,23.12
2023-08-11T13:40:58.734Z,23.15
2023-08-11T13:43:26.696Z,23.14
2023-08-11T13:45:55.097Z,23.09
2023-08-11T13:48:27.121Z,22.98
2023-08-11T13:50:56.405Z,22.93
2023-08-11T13:53:24.453Z,22.88
2023-08-11T13:55:52.786Z,22.84
2023-08-11T13:58:20.724Z,22.78
2023-08-11T14:00:49.823Z,22.71
2023-08-11T14:03:17.725Z,22.65
2023-08-11T14:05:45.631Z,22.64
2023-08-11T14:08:13.620Z,22.62
2023-08-11T14:10:41.652Z,22.56
2023-08-11T14:13:11.742Z,22.52
2023-08-11T14:15:40.181Z,22.47
2023-08-11T14:18:08.684Z,22.41
2023-08-11T14:20:36.923Z,22.40
2023-08-11T14:23:05.149Z,22.35
2023-08-11T14:25:34.029Z,22.31
2023-08-11T14:28:04.082Z,22.27
2023-08-11T14:30:32.162Z,22.23
2023-08-11T14:33:01.367Z,22.17
2023-08-11T14:35:29.579Z,22.12
2023-08-11T14:37:59.656Z,22.07
2023-08-11T14:40:27.824Z,22.03
2023-08-11T14:42:55.727Z,21.99
2023-08-11T14:45:23.582Z,21.96
2023-08-11T14:47:51.671Z,21.94
2023-08-11T14:50:20.039Z,21.93
2023-08-11T14:52:48.014Z,21.93
2023-08-11T14:55:16.675Z,21.93
2023-08-11T14:57:45.435Z,21.93
2023-08-11T15:00:14.819Z,21.94
2023-08-11T15:02:43.179Z,21.95
2023-08-11T15:05:11.381Z,21.95
2023-08-11T15:07:39.464Z,21.92
2023-08-11T15:10:08.610Z,21.91
2023-08-11T15:12:36.877Z,21.91
2023-08-11T15:15:06.097Z,21.89
2023-08-11T15:17:34.141Z,21.89
2023-08-11T15:20:02.319Z,21.88
2023-08-11T15:22:30.401Z,21.89
2023-08-11T15:25:02.432Z,21.90
2023-08-11T15:27:31.190Z,21.91
2023-08-11T15:29:59.691Z,21.88
2023-08-11T15:32:27.944Z,21.83
2023-08-11T15:34:56.022Z,21.79
2023-08-11T15:37:23.981Z,21.76
2023-08-11T15:39:55.065Z,21.74
2023-08-11T15:42:23.423Z,21.72
2023-08-11T15:44:51.420Z,21.69
2023-08-11T15:47:19.451Z,21.63
2023-08-11T15:49:50.638Z,21.58
2023-08-11T15:52:18.902Z,21.54
2023-08-11T15:54:46.907Z,21.52
2023-08-11T15:57:14.768Z,21.51
2023-08-11T15:59:43.507Z,21.50
2023-08-11T16:02:11.743Z,21.50
2023-08-11T16:04:39.803Z,21.51
2023-08-11T16:07:07.815Z,21.52
2023-08-11T16:09:35.814Z,21.55
2023-08-11T16:12:04.035Z,21.56
2023-08-11T16:14:32.509Z,21.55
2023-08-11T16:17:00.455Z,21.54
2023-08-11T16:19:28.615Z,21.53
2023-08-11T16:21:56.621Z,21.54
2023-08-11T16:24:24.633Z,21.54
2023-08-11T16:26:52.719Z,21.53
2023-08-11T16:29:20.608Z,21.54
2023-08-11T16:31:50.224Z,21.54
2023-08-11T16:34:18.545Z,21.53
2023-08-11T16:36:46.454Z,21.52
2023-08-11T16:39:15.206Z,21.51
2023-08-11T16:41:43.199Z,21.50
2023-08-11T16:44:11.582Z,21.45
2023-08-11T16:46:40.490Z,21.39
2023-08-11T16:49:08.627Z,21.36
2023-08-11T16:51:36.630Z,21.32
2023-08-11T16:54:05.031Z,21.28
2023-08-11T16:56:33.075Z,21.26
2023-08-11T16:59:01.964Z,21.24
2023-08-11T17:01:30.001Z,21.22
2023-08-11T17:03:58.300Z,21.21
2023-08-11T17:06:26.335Z,21.20
2023-08-11T17:08:55.508Z,21.17
2023-08-11T17:11:23.623Z,21.15
2023-08-11T17:13:51.588Z,21.13
2023-08-11T17:16:20.324Z,21.12
2023-08-11T17:18:51.025Z,21.10
2023-08-11T17:21:21.667Z,21.06
2023-08-11T17:23:55.711Z,21.00
2023-08-11T17:26:24.364Z,20.96
2023-08-11T17:28:57.045Z,20.90
2023-08-11T17:31:25.126Z,20.87
2023-08-11T17:33:53.213Z,20.83
2023-08-11T17:36:26.668Z,20.78
2023-08-11T17:38:56.117Z,20.71
2023-08-11T17:41:28.023Z,20.65
2023-08-11T17:43:57.909Z,20.60
2023-08-11T17:46:27.393Z,20.57
2023-08-11T17:48:55.628Z,20.53
2023-08-11T17:51:25.231Z,20.50
2023-08-11T17:54:08.152Z,20.48
2023-08-11T17:56:38.369Z,20.44
2023-08-11T17:59:06.772Z,20.41
2023-08-11T18:01:34.935Z,20.38
2023-08-11T18:04:07.471Z,20.35
2023-08-11T18:06:37.256Z,20.31
2023-08-11T18:09:05.948Z,20.27
2023-08-11T18:11:35.597Z,20.25
2023-08-11T18:14:04.569Z,20.22
2023-08-11T18:16:33.437Z,20.18
2023-08-11T18:19:01.545Z,20.12
2023-08-11T18:21:29.770Z,20.08
2023-08-11T18:23:57.804Z,20.01
2023-08-11T18:26:25.893Z,19.97
2023-08-11T18:28:53.934Z,19.92
2023-08-11T18:31:22.073Z,19.87
2023-08-11T18:33:50.109Z,19.82
2023-08-11T18:36:18.351Z,19.75
2023-08-11T18:38:47.200Z,19.69
2023-08-11T18:41:15.040Z,19.63
2023-08-11T18:43:43.030Z,19.58
2023-08-11T18:46:11.137Z,19.53
2023-08-11T18:48:39.269Z,19.48
2023-08-11T18:51:07.212Z,19.42
2023-08-11T18:53:35.187Z,19.37
2023-08-11T18:56:03.234Z,19.31
2023-08-11T18:58:31.271Z,19.25
2023-08-11T19:00:59.335Z,19.20
2023-08-11T19:03:27.386Z,19.16
2023-08-11T19:05:58.719Z,19.12
2023-08-11T19:08:27.042Z,19.08
2023-08-11T19:10:55.091Z,19.03
2023-08-11T19:13:23.107Z,18.98
2023-08-11T19:15:51.472Z,18.95
2023-08-11T19:18:19.480Z,18.92
2023-08-11T19:20:48.335Z,18.89
2023-08-11T19:23:17.329Z,18.86
2023-08-11T19:25:45.425Z,18.81
2023-08-11T19:28:13.484Z,18.77
2023-08-11T19:30:41.585Z,18.73
2023-08-11T19:33:10.888Z,18.68
2023-08-11T19:35:39.442Z,18.64
2023-08-11T19:38:07.732Z,18.60
2023-08-11T19:40:35.644Z,18.57
2023-08-11T19:43:03.808Z,18.54
2023-08-11T19:45:32.138Z,18.51
2023-08-11T19:48:00.309Z,18.46
2023-08-11T19:50:28.568Z,18.43
2023-08-11T19:52:56.805Z,18.42
2023-08-11T19:55:24.717Z,18.39
2023-08-11T19:57:52.780Z,18.35
2023-08-11T20:00:21.118Z,18.32
2023-08-11T20:02:49.257Z,18.28
2023-08-11T20:05:17.431Z,18.24
2023-08-11T20:07:45.453Z,18.20
2023-08-11T20:10:13.683Z,18.15
2023-08-11T20:12:41.843Z,18.11
2023-08-11T20:15:10.321Z,18.06
2023-08-11T20:17:39.712Z,18.03
2023-08-11T20:20:08.506Z,18.00
2023-08-11T20:22:36.581Z,17.96
2023-08-11T20:25:04.835Z,17.94
2023-08-11T20:27:33.077Z,17.91
2023-08-11T20:30:01.077Z,17.89
2023-08-11T20:32:29.152Z,17.85
2023-08-11T20:34:57.070Z,17.83
2023-08-11T20:37:25.366Z,17.80
2023-08-11T20:39:53.303Z,17.78
2023-08-11T20:42:21.256Z,17.75
2023-08-11T20:44:52.953Z,17.70
2023-08-11T20:47:20.938Z,17.64
2023-08-11T20:49:48.987Z,17.61
2023-08-11T20:52:18.242Z,17.56
2023-08-11T20:54:47.661Z,17.53
2023-08-11T20:57:15.811Z,17.49
2023-08-11T20:59:44.791Z,17.45
2023-08-11T21:02:12.816Z,17.42
2023-08-11T21:04:40.867Z,17.40
2023-08-11T21:07:09.346Z,17.37
2023-08-11T21:09:37.630Z,17.35
2023-08-11T21:12:05.947Z,17.33
2023-08-11T21:14:33.919Z,17.29
2023-08-11T21:17:03.265Z,17.27
2023-08-11T21:19:32.038Z,17.24
2023-08-11T21:22:00.091Z,17.21
2023-08-11T21:24:28.161Z,17.18
2023-08-11T21:26:56.458Z,17.15
2023-08-11T21:29:24.577Z,17.11
2023-08-11T21:31:52.563Z,17.06
2023-08-11T21:34:20.505Z,17.01
2023-08-11T21:36:48.380Z,16.96
2023-08-11T21:39:16.324Z,16.92
2023-08-11T21:41:44.194Z,16.91
2023-08-11T21:44:12.492Z,16.88
2023-08-11T21:46:40.666Z,16.86
2023-08-11T21:49:08.851Z,16.84
2023-08-11T21:51:37.695Z,16.82
2023-08-11T21:54:05.763Z,16.79
2023-08-11T21:56:33.758Z,16.77
2023-08-11T21:59:01.651Z,16.76
2023-08-11T22:01:29.689Z,16.74
2023-08-11T22:03:59.721Z,16.72
2023-08-11T22:06:27.713Z,16.71
2023-08-11T22:08:55.575Z,16.68
2023-08-11T22:11:35.984Z,16.65
2023-08-11T22:14:06.353Z,16.63
2023-08-11T22:16:34.632Z,16.62
2023-08-11T22:19:02.666Z,16.60
2023-08-11T22:21:30.770Z,16.58
2023-08-11T22:23:58.779Z,16.54
2023-08-11T22:26:26.785Z,16.49
2023-08-11T22:28:54.693Z,16.43
2023-08-11T22:31:22.625Z,16.37
2023-08-11T22:33:50.590Z,16.31
2023-08-11T22:36:18.544Z,16.26
2023-08-11T22:38:46.790Z,16.22
2023-08-11T22:41:15.662Z,16.18
2023-08-11T22:43:43.538Z,16.13
2023-08-11T22:46:11.663Z,16.09
2023-08-11T22:48:39.626Z,16.06
2023-08-11T22:51:07.651Z,16.03
2023-08-11T22:53:35.737Z,16.01
2023-08-11T22:56:03.968Z,15.99
2023-08-11T22:58:31.956Z,15.98
2023-08-11T23:01:01.711Z,15.95
2023-08-11T23:03:29.699Z,15.92
2023-08-11T23:05:57.783Z,15.89
2023-08-11T23:08:25.883Z,15.85
2023-08-11T23:10:53.692Z,15.79
2023-08-11T23:13:21.526Z,15.74
2023-08-11T23:15:49.487Z,15.68
2023-08-11T23:18:17.597Z,15.63
2023-08-11T23:20:47.002Z,15.61
2023-08-11T23:23:15.833Z,15.56
2023-08-11T23:25:44.486Z,15.52
2023-08-11T23:28:12.283Z,15.47
2023-08-11T23:30:46.392Z,15.44
2023-08-11T23:33:14.412Z,15.40
2023-08-11T23:35:42.366Z,15.35
2023-08-11T23:38:11.910Z,15.31
2023-08-11T23:40:39.859Z,15.27
2023-08-11T23:43:07.906Z,15.25
2023-08-11T23:45:36.139Z,15.23
2023-08-11T23:48:04.476Z,15.21
2023-08-11T23:50:32.596Z,15.18
2023-08-11T23:53:01.623Z,15.16
2023-08-11T23:55:29.853Z,15.15
2023-08-11T23:57:58.040Z,15.14
